sensor_id;sensor_type;location;lat;lon;timestamp;P1;durP1;ratioP1;P2;durP2;ratioP2
31270;SDS011;17904;47.420;9.310;2022-10-31T00:00:52;20.88;;;3.47;;
31270;SDS011;17904;47.420;9.310;2022-10-31T00:03:19;9.27;;;3.33;;
31270;SDS011;17904;47.420;9.310;2022-10-31T00:05:47;13.00;;;3.35;;
31270;SDS011;17904;47.420;9.310;2022-10-31T00:08:15;11.70;;;3.70;;
31270;SDS011;17904;47.420;9.310;2022-10-31T00:10:43;10.55;;;3.10;;
31270;SDS011;17904;47.420;9.310;2022-10-31T00:13:12;10.23;;;2.78;;
31270;SDS011;17904;47.420;9.310;2022-10-31T00:15:40;5.85;;;2.22;;
31270;SDS011;17904;47.420;9.310;2022-10-31T00:18:07;8.57;;;2.40;;
31270;SDS011;17904;47.420;9.310;2022-10-31T00:20:36;10.68;;;3.28;;
31270;SDS011;17904;47.420;9.310;2022-10-31T00:23:04;18.13;;;3.00;;
31270;SDS011;17904;47.420;9.310;2022-10-31T00:25:36;16.77;;;3.13;;
31270;SDS011;17904;47.420;9.310;2022-10-31T00:28:04;8.32;;;2.78;;
31270;SDS011;17904;47.420;9.310;2022-10-31T00:30:33;5.68;;;2.40;;
31270;SDS011;17904;47.420;9.310;2022-10-31T00:32:59;13.63;;;2.90;;
31270;SDS011;17904;47.420;9.310;2022-10-31T00:35:27;13.27;;;3.72;;
31270;SDS011;17904;47.420;9.310;2022-10-31T00:37:54;16.88;;;3.78;;
31270;SDS011;17904;47.420;9.310;2022-10-31T00:40:20;12.50;;;2.67;;
31270;SDS011;17904;47.420;9.310;2022-10-31T00:42:47;12.27;;;2.47;;
31270;SDS011;17904;47.420;9.310;2022-10-31T00:45:14;7.95;;;2.38;;
31270;SDS011;17904;47.420;9.310;2022-10-31T00:47:40;9.07;;;2.17;;
31270;SDS011;17904;47.420;9.310;2022-10-31T00:50:07;10.32;;;3.38;;
31270;SDS011;17904;47.420;9.310;2022-10-31T00:52:35;9.95;;;2.92;;
31270;SDS011;17904;47.420;9.310;2022-10-31T00:55:02;12.32;;;3.25;;
31270;SDS011;17904;47.420;9.310;2022-10-31T00:57:29;13.75;;;3.30;;
31270;SDS011;17904;47.420;9.310;2022-10-31T00:59:55;13.75;;;4.43;;
31270;SDS011;17904;47.420;9.310;2022-10-31T01:02:22;23.70;;;3.28;;
31270;SDS011;17904;47.420;9.310;2022-10-31T01:04:49;8.27;;;2.80;;
31270;SDS011;17904;47.420;9.310;2022-10-31T01:07:16;11.68;;;3.65;;
31270;SDS011;17904;47.420;9.310;2022-10-31T01:09:43;9.43;;;2.78;;
31270;SDS011;17904;47.420;9.310;2022-10-31T01:12:10;12.15;;;2.75;;
31270;SDS011;17904;47.420;9.310;2022-10-31T01:14:41;8.05;;;2.88;;
31270;SDS011;17904;47.420;9.310;2022-10-31T01:17:09;12.70;;;2.75;;
31270;SDS011;17904;47.420;9.310;2022-10-31T01:19:36;15.52;;;2.80;;
31270;SDS011;17904;47.420;9.310;2022-10-31T01:24:30;11.63;;;3.00;;
31270;SDS011;17904;47.420;9.310;2022-10-31T01:29:23;9.52;;;2.78;;
31270;SDS011;17904;47.420;9.310;2022-10-31T01:31:50;12.25;;;3.33;;
31270;SDS011;17904;47.420;9.310;2022-10-31T01:34:17;14.07;;;2.40;;
31270;SDS011;17904;47.420;9.310;2022-10-31T01:36:44;5.70;;;2.22;;
31270;SDS011;17904;47.420;9.310;2022-10-31T01:39:14;11.73;;;2.35;;
31270;SDS011;17904;47.420;9.310;2022-10-31T01:41:42;9.23;;;2.45;;
31270;SDS011;17904;47.420;9.310;2022-10-31T01:46:45;12.13;;;3.50;;
31270;SDS011;17904;47.420;9.310;2022-10-31T01:49:23;9.07;;;2.58;;
31270;SDS011;17904;47.420;9.310;2022-10-31T01:51:57;13.38;;;2.80;;
31270;SDS011;17904;47.420;9.310;2022-10-31T01:54:29;15.68;;;2.95;;
31270;SDS011;17904;47.420;9.310;2022-10-31T01:57:02;9.55;;;2.72;;
31270;SDS011;17904;47.420;9.310;2022-10-31T01:59:33;6.72;;;2.70;;
31270;SDS011;17904;47.420;9.310;2022-10-31T02:02:06;11.55;;;2.90;;
31270;SDS011;17904;47.420;9.310;2022-10-31T02:04:33;8.55;;;2.30;;
31270;SDS011;17904;47.420;9.310;2022-10-31T02:07:05;12.98;;;3.70;;
31270;SDS011;17904;47.420;9.310;2022-10-31T02:09:36;10.63;;;2.53;;
31270;SDS011;17904;47.420;9.310;2022-10-31T02:12:04;11.80;;;4.05;;
31270;SDS011;17904;47.420;9.310;2022-10-31T02:14:32;8.27;;;3.53;;
31270;SDS011;17904;47.420;9.310;2022-10-31T02:17:02;16.50;;;3.00;;
31270;SDS011;17904;47.420;9.310;2022-10-31T02:22:24;11.27;;;2.55;;
31270;SDS011;17904;47.420;9.310;2022-10-31T02:27:52;5.60;;;2.22;;
31270;SDS011;17904;47.420;9.310;2022-10-31T02:30:30;8.00;;;2.60;;
31270;SDS011;17904;47.420;9.310;2022-10-31T02:33:20;5.85;;;2.03;;
31270;SDS011;17904;47.420;9.310;2022-10-31T02:46:59;4.38;;;2.25;;
31270;SDS011;17904;47.420;9.310;2022-10-31T02:49:33;11.48;;;3.00;;
31270;SDS011;17904;47.420;9.310;2022-10-31T02:52:21;7.45;;;2.40;;
31270;SDS011;17904;47.420;9.310;2022-10-31T02:54:51;9.45;;;2.83;;
31270;SDS011;17904;47.420;9.310;2022-10-31T02:57:20;6.95;;;2.15;;
31270;SDS011;17904;47.420;9.310;2022-10-31T03:00:04;8.23;;;2.47;;
31270;SDS011;17904;47.420;9.310;2022-10-31T03:05:42;14.85;;;2.78;;
31270;SDS011;17904;47.420;9.310;2022-10-31T03:08:17;8.32;;;2.60;;
31270;SDS011;17904;47.420;9.310;2022-10-31T03:10:57;15.20;;;2.83;;
31270;SDS011;17904;47.420;9.310;2022-10-31T03:16:08;16.10;;;2.20;;
31270;SDS011;17904;47.420;9.310;2022-10-31T03:18:39;7.30;;;1.95;;
31270;SDS011;17904;47.420;9.310;2022-10-31T03:21:14;8.60;;;2.60;;
31270;SDS011;17904;47.420;9.310;2022-10-31T03:23:46;15.90;;;3.53;;
31270;SDS011;17904;47.420;9.310;2022-10-31T03:26:18;8.80;;;2.78;;
31270;SDS011;17904;47.420;9.310;2022-10-31T03:28:51;13.32;;;2.65;;
31270;SDS011;17904;47.420;9.310;2022-10-31T03:31:25;10.20;;;2.38;;
31270;SDS011;17904;47.420;9.310;2022-10-31T03:33:58;11.55;;;3.25;;
31270;SDS011;17904;47.420;9.310;2022-10-31T03:36:29;9.43;;;2.50;;
31270;SDS011;17904;47.420;9.310;2022-10-31T03:38:58;10.18;;;2.65;;
31270;SDS011;17904;47.420;9.310;2022-10-31T03:41:29;6.05;;;2.35;;
31270;SDS011;17904;47.420;9.310;2022-10-31T03:43:59;8.55;;;2.35;;
31270;SDS011;17904;47.420;9.310;2022-10-31T03:46:32;10.90;;;3.08;;
31270;SDS011;17904;47.420;9.310;2022-10-31T03:54:09;6.45;;;2.30;;
31270;SDS011;17904;47.420;9.310;2022-10-31T03:56:53;11.82;;;3.85;;
31270;SDS011;17904;47.420;9.310;2022-10-31T03:59:25;7.97;;;2.13;;
31270;SDS011;17904;47.420;9.310;2022-10-31T04:01:59;14.68;;;2.42;;
31270;SDS011;17904;47.420;9.310;2022-10-31T04:04:30;10.65;;;2.55;;
31270;SDS011;17904;47.420;9.310;2022-10-31T04:06:59;9.63;;;3.33;;
31270;SDS011;17904;47.420;9.310;2022-10-31T04:09:27;9.13;;;2.60;;
31270;SDS011;17904;47.420;9.310;2022-10-31T04:11:59;9.35;;;3.15;;
31270;SDS011;17904;47.420;9.310;2022-10-31T04:14:55;8.80;;;2.03;;
31270;SDS011;17904;47.420;9.310;2022-10-31T04:17:23;7.57;;;2.40;;
31270;SDS011;17904;47.420;9.310;2022-10-31T04:19:58;10.50;;;2.72;;
31270;SDS011;17904;47.420;9.310;2022-10-31T04:22:27;7.55;;;2.85;;
31270;SDS011;17904;47.420;9.310;2022-10-31T04:24:54;15.13;;;3.50;;
31270;SDS011;17904;47.420;9.310;2022-10-31T04:29:47;12.30;;;3.67;;
31270;SDS011;17904;47.420;9.310;2022-10-31T04:32:17;15.05;;;3.60;;
31270;SDS011;17904;47.420;9.310;2022-10-31T04:34:44;9.73;;;2.17;;
31270;SDS011;17904;47.420;9.310;2022-10-31T04:37:10;13.43;;;2.42;;
31270;SDS011;17904;47.420;9.310;2022-10-31T04:39:38;5.57;;;2.50;;
31270;SDS011;17904;47.420;9.310;2022-10-31T04:42:43;20.35;;;3.20;;
31270;SDS011;17904;47.420;9.310;2022-10-31T04:47:43;8.57;;;2.47;;
31270;SDS011;17904;47.420;9.310;2022-10-31T04:50:10;14.05;;;3.60;;
31270;SDS011;17904;47.420;9.310;2022-10-31T04:55:09;18.20;;;3.45;;
31270;SDS011;17904;47.420;9.310;2022-10-31T04:58:12;6.30;;;2.47;;
31270;SDS011;17904;47.420;9.310;2022-10-31T05:00:39;20.00;;;3.17;;
31270;SDS011;17904;47.420;9.310;2022-10-31T05:03:06;4.70;;;2.47;;
31270;SDS011;17904;47.420;9.310;2022-10-31T05:05:33;13.25;;;3.95;;
31270;SDS011;17904;47.420;9.310;2022-10-31T05:08:02;10.00;;;2.72;;
31270;SDS011;17904;47.420;9.310;2022-10-31T05:10:30;7.43;;;2.45;;
31270;SDS011;17904;47.420;9.310;2022-10-31T05:12:59;11.65;;;3.13;;
31270;SDS011;17904;47.420;9.310;2022-10-31T05:15:47;6.38;;;2.17;;
31270;SDS011;17904;47.420;9.310;2022-10-31T05:18:34;4.72;;;1.90;;
31270;SDS011;17904;47.420;9.310;2022-10-31T05:21:13;8.05;;;3.03;;
31270;SDS011;17904;47.420;9.310;2022-10-31T05:23:51;32.53;;;3.30;;
31270;SDS011;17904;47.420;9.310;2022-10-31T05:26:20;18.02;;;2.53;;
31270;SDS011;17904;47.420;9.310;2022-10-31T05:28:47;13.95;;;2.72;;
31270;SDS011;17904;47.420;9.310;2022-10-31T05:31:14;5.18;;;2.67;;
31270;SDS011;17904;47.420;9.310;2022-10-31T05:33:41;5.28;;;2.08;;
31270;SDS011;17904;47.420;9.310;2022-10-31T05:36:27;9.35;;;2.78;;
31270;SDS011;17904;47.420;9.310;2022-10-31T05:38:57;11.15;;;2.60;;
31270;SDS011;17904;47.420;9.310;2022-10-31T05:41:29;14.25;;;3.28;;
31270;SDS011;17904;47.420;9.310;2022-10-31T05:46:47;16.20;;;2.88;;
31270;SDS011;17904;47.420;9.310;2022-10-31T05:49:32;13.32;;;3.22;;
31270;SDS011;17904;47.420;9.310;2022-10-31T05:52:18;9.35;;;2.90;;
31270;SDS011;17904;47.420;9.310;2022-10-31T05:54:52;6.18;;;2.60;;
31270;SDS011;17904;47.420;9.310;2022-10-31T05:59:46;14.10;;;3.50;;
31270;SDS011;17904;47.420;9.310;2022-10-31T06:02:21;14.38;;;3.42;;
31270;SDS011;17904;47.420;9.310;2022-10-31T06:05:20;9.60;;;2.10;;
31270;SDS011;17904;47.420;9.310;2022-10-31T06:10:13;9.48;;;3.42;;
31270;SDS011;17904;47.420;9.310;2022-10-31T06:15:18;9.85;;;4.13;;
31270;SDS011;17904;47.420;9.310;2022-10-31T06:18:24;9.77;;;3.00;;
31270;SDS011;17904;47.420;9.310;2022-10-31T06:20:46;10.50;;;2.92;;
31270;SDS011;17904;47.420;9.310;2022-10-31T06:23:14;17.17;;;3.13;;
31270;SDS011;17904;47.420;9.310;2022-10-31T06:25:43;12.80;;;3.25;;
31270;SDS011;17904;47.420;9.310;2022-10-31T06:28:14;12.90;;;2.50;;
31270;SDS011;17904;47.420;9.310;2022-10-31T06:30:48;7.63;;;3.65;;
31270;SDS011;17904;47.420;9.310;2022-10-31T06:33:16;18.42;;;3.95;;
31270;SDS011;17904;47.420;9.310;2022-10-31T06:35:53;13.75;;;2.97;;
31270;SDS011;17904;47.420;9.310;2022-10-31T06:38:20;20.13;;;4.55;;
31270;SDS011;17904;47.420;9.310;2022-10-31T06:40:47;8.43;;;2.50;;
31270;SDS011;17904;47.420;9.310;2022-10-31T06:43:21;15.02;;;3.20;;
31270;SDS011;17904;47.420;9.310;2022-10-31T06:45:54;20.05;;;3.90;;
31270;SDS011;17904;47.420;9.310;2022-10-31T06:48:37;13.95;;;3.65;;
31270;SDS011;17904;47.420;9.310;2022-10-31T06:51:28;8.65;;;3.20;;
31270;SDS011;17904;47.420;9.310;2022-10-31T06:53:55;13.13;;;4.05;;
31270;SDS011;17904;47.420;9.310;2022-10-31T06:56:24;7.82;;;2.95;;
31270;SDS011;17904;47.420;9.310;2022-10-31T06:58:54;4.35;;;2.45;;
31270;SDS011;17904;47.420;9.310;2022-10-31T07:01:41;5.40;;;2.38;;
31270;SDS011;17904;47.420;9.310;2022-10-31T07:04:09;13.98;;;2.92;;
31270;SDS011;17904;47.420;9.310;2022-10-31T07:06:37;12.73;;;3.03;;
31270;SDS011;17904;47.420;9.310;2022-10-31T07:09:04;8.45;;;2.78;;
31270;SDS011;17904;47.420;9.310;2022-10-31T07:11:31;12.95;;;3.40;;
31270;SDS011;17904;47.420;9.310;2022-10-31T07:13:58;10.13;;;2.97;;
31270;SDS011;17904;47.420;9.310;2022-10-31T07:18:52;6.68;;;2.90;;
31270;SDS011;17904;47.420;9.310;2022-10-31T07:21:19;6.70;;;2.53;;
31270;SDS011;17904;47.420;9.310;2022-10-31T07:26:33;11.55;;;2.90;;
31270;SDS011;17904;47.420;9.310;2022-10-31T07:29:01;12.93;;;3.13;;
31270;SDS011;17904;47.420;9.310;2022-10-31T07:31:27;7.72;;;2.97;;
31270;SDS011;17904;47.420;9.310;2022-10-31T07:33:59;12.35;;;3.17;;
31270;SDS011;17904;47.420;9.310;2022-10-31T07:36:26;12.15;;;3.45;;
31270;SDS011;17904;47.420;9.310;2022-10-31T07:38:57;9.15;;;2.72;;
31270;SDS011;17904;47.420;9.310;2022-10-31T07:41:25;18.63;;;2.85;;
31270;SDS011;17904;47.420;9.310;2022-10-31T07:43:52;11.02;;;2.97;;
31270;SDS011;17904;47.420;9.310;2022-10-31T07:46:50;8.10;;;3.33;;
31270;SDS011;17904;47.420;9.310;2022-10-31T07:49:35;12.80;;;3.10;;
31270;SDS011;17904;47.420;9.310;2022-10-31T07:52:08;13.68;;;3.05;;
31270;SDS011;17904;47.420;9.310;2022-10-31T07:54:53;14.27;;;3.17;;
31270;SDS011;17904;47.420;9.310;2022-10-31T07:57:22;11.98;;;3.42;;
31270;SDS011;17904;47.420;9.310;2022-10-31T07:59:50;9.73;;;3.05;;
31270;SDS011;17904;47.420;9.310;2022-10-31T08:04:46;9.85;;;2.97;;
31270;SDS011;17904;47.420;9.310;2022-10-31T08:07:39;12.55;;;2.75;;
31270;SDS011;17904;47.420;9.310;2022-10-31T08:10:12;11.52;;;3.75;;
31270;SDS011;17904;47.420;9.310;2022-10-31T08:12:39;12.13;;;3.40;;
31270;SDS011;17904;47.420;9.310;2022-10-31T08:15:07;9.88;;;2.97;;
31270;SDS011;17904;47.420;9.310;2022-10-31T08:17:35;10.02;;;3.53;;
31270;SDS011;17904;47.420;9.310;2022-10-31T08:20:05;11.25;;;3.83;;
31270;SDS011;17904;47.420;9.310;2022-10-31T08:25:09;25.67;;;5.05;;
31270;SDS011;17904;47.420;9.310;2022-10-31T08:27:37;14.70;;;2.97;;
31270;SDS011;17904;47.420;9.310;2022-10-31T08:30:04;13.55;;;3.75;;
31270;SDS011;17904;47.420;9.310;2022-10-31T08:32:33;12.32;;;3.40;;
31270;SDS011;17904;47.420;9.310;2022-10-31T08:35:35;9.32;;;2.67;;
31270;SDS011;17904;47.420;9.310;2022-10-31T08:38:28;12.65;;;3.65;;
31270;SDS011;17904;47.420;9.310;2022-10-31T08:40:55;14.13;;;4.30;;
31270;SDS011;17904;47.420;9.310;2022-10-31T08:45:49;12.43;;;3.15;;
31270;SDS011;17904;47.420;9.310;2022-10-31T08:48:23;14.40;;;3.55;;
31270;SDS011;17904;47.420;9.310;2022-10-31T08:50:51;11.48;;;3.72;;
31270;SDS011;17904;47.420;9.310;2022-10-31T08:53:24;7.47;;;2.85;;
31270;SDS011;17904;47.420;9.310;2022-10-31T08:56:07;10.77;;;3.70;;
31270;SDS011;17904;47.420;9.310;2022-10-31T08:58:34;6.07;;;2.80;;
31270;SDS011;17904;47.420;9.310;2022-10-31T09:01:07;7.82;;;3.20;;
31270;SDS011;17904;47.420;9.310;2022-10-31T09:03:34;7.80;;;3.55;;
31270;SDS011;17904;47.420;9.310;2022-10-31T09:13:43;18.35;;;3.35;;
31270;SDS011;17904;47.420;9.310;2022-10-31T09:16:29;9.65;;;3.60;;
31270;SDS011;17904;47.420;9.310;2022-10-31T09:18:56;17.23;;;4.05;;
31270;SDS011;17904;47.420;9.310;2022-10-31T09:21:22;19.20;;;3.70;;
31270;SDS011;17904;47.420;9.310;2022-10-31T09:23:49;13.25;;;2.90;;
31270;SDS011;17904;47.420;9.310;2022-10-31T09:26:16;9.23;;;3.00;;
31270;SDS011;17904;47.420;9.310;2022-10-31T09:31:22;10.63;;;3.45;;
31270;SDS011;17904;47.420;9.310;2022-10-31T09:33:48;17.77;;;4.82;;
31270;SDS011;17904;47.420;9.310;2022-10-31T09:36:34;18.02;;;4.60;;
31270;SDS011;17904;47.420;9.310;2022-10-31T09:39:02;20.02;;;4.75;;
31270;SDS011;17904;47.420;9.310;2022-10-31T09:47:46;12.02;;;4.35;;
31270;SDS011;17904;47.420;9.310;2022-10-31T09:50:58;13.95;;;5.88;;
31270;SDS011;17904;47.420;9.310;2022-10-31T09:53:51;14.60;;;5.60;;
31270;SDS011;17904;47.420;9.310;2022-10-31T09:56:25;17.80;;;6.28;;
31270;SDS011;17904;47.420;9.310;2022-10-31T09:58:58;17.15;;;4.72;;
31270;SDS011;17904;47.420;9.310;2022-10-31T10:03:55;15.32;;;4.47;;
31270;SDS011;17904;47.420;9.310;2022-10-31T10:06:55;14.05;;;5.28;;
31270;SDS011;17904;47.420;9.310;2022-10-31T10:09:51;22.73;;;5.47;;
31270;SDS011;17904;47.420;9.310;2022-10-31T10:15:26;15.43;;;5.43;;
31270;SDS011;17904;47.420;9.310;2022-10-31T10:22:07;13.80;;;4.55;;
31270;SDS011;17904;47.420;9.310;2022-10-31T10:24:35;17.45;;;5.40;;
31270;SDS011;17904;47.420;9.310;2022-10-31T10:30:17;14.75;;;4.38;;
31270;SDS011;17904;47.420;9.310;2022-10-31T10:32:47;13.65;;;4.85;;
31270;SDS011;17904;47.420;9.310;2022-10-31T10:38:02;17.50;;;5.05;;
31270;SDS011;17904;47.420;9.310;2022-10-31T10:40:42;13.13;;;5.25;;
31270;SDS011;17904;47.420;9.310;2022-10-31T10:45:52;13.05;;;5.53;;
31270;SDS011;17904;47.420;9.310;2022-10-31T10:48:42;10.38;;;4.07;;
31270;SDS011;17904;47.420;9.310;2022-10-31T10:51:31;14.70;;;4.45;;
31270;SDS011;17904;47.420;9.310;2022-10-31T10:54:33;12.95;;;4.90;;
31270;SDS011;17904;47.420;9.310;2022-10-31T10:57:06;14.02;;;4.75;;
31270;SDS011;17904;47.420;9.310;2022-10-31T10:59:45;11.63;;;4.35;;
31270;SDS011;17904;47.420;9.310;2022-10-31T11:02:15;20.35;;;4.03;;
31270;SDS011;17904;47.420;9.310;2022-10-31T11:04:51;19.05;;;5.05;;
31270;SDS011;17904;47.420;9.310;2022-10-31T11:07:20;13.18;;;5.05;;
31270;SDS011;17904;47.420;9.310;2022-10-31T11:09:47;15.93;;;4.60;;
31270;SDS011;17904;47.420;9.310;2022-10-31T11:12:21;17.85;;;5.80;;
31270;SDS011;17904;47.420;9.310;2022-10-31T11:14:53;18.80;;;6.65;;
31270;SDS011;17904;47.420;9.310;2022-10-31T11:20:49;13.40;;;5.55;;
31270;SDS011;17904;47.420;9.310;2022-10-31T11:22:47;12.60;;;4.88;;
31270;SDS011;17904;47.420;9.310;2022-10-31T11:25:24;11.70;;;5.22;;
31270;SDS011;17904;47.420;9.310;2022-10-31T11:27:58;12.95;;;5.38;;
31270;SDS011;17904;47.420;9.310;2022-10-31T11:30:30;11.75;;;5.65;;
31270;SDS011;17904;47.420;9.310;2022-10-31T11:33:02;15.60;;;5.38;;
31270;SDS011;17904;47.420;9.310;2022-10-31T11:35:30;16.65;;;4.88;;
31270;SDS011;17904;47.420;9.310;2022-10-31T11:37:57;12.45;;;4.78;;
31270;SDS011;17904;47.420;9.310;2022-10-31T11:40:26;16.83;;;5.57;;
31270;SDS011;17904;47.420;9.310;2022-10-31T11:42:54;23.75;;;7.43;;
31270;SDS011;17904;47.420;9.310;2022-10-31T11:47:57;19.05;;;6.07;;
31270;SDS011;17904;47.420;9.310;2022-10-31T11:50:35;17.77;;;7.03;;
31270;SDS011;17904;47.420;9.310;2022-10-31T11:53:14;15.57;;;7.18;;
31270;SDS011;17904;47.420;9.310;2022-10-31T11:55:44;15.70;;;5.43;;
31270;SDS011;17904;47.420;9.310;2022-10-31T11:58:21;9.75;;;4.90;;
31270;SDS011;17904;47.420;9.310;2022-10-31T12:00:53;7.45;;;4.53;;
31270;SDS011;17904;47.420;9.310;2022-10-31T12:08:17;15.73;;;5.70;;
31270;SDS011;17904;47.420;9.310;2022-10-31T12:10:56;18.80;;;6.70;;
31270;SDS011;17904;47.420;9.310;2022-10-31T12:13:59;12.45;;;6.38;;
31270;SDS011;17904;47.420;9.310;2022-10-31T12:19:42;10.35;;;4.78;;
31270;SDS011;17904;47.420;9.310;2022-10-31T12:28:03;12.30;;;6.10;;
31270;SDS011;17904;47.420;9.310;2022-10-31T12:30:48;13.25;;;6.13;;
31270;SDS011;17904;47.420;9.310;2022-10-31T12:39:23;20.13;;;6.82;;
31270;SDS011;17904;47.420;9.310;2022-10-31T13:02:34;26.05;;;7.97;;
31270;SDS011;17904;47.420;9.310;2022-10-31T13:08:06;10.88;;;6.25;;
31270;SDS011;17904;47.420;9.310;2022-10-31T13:13:47;10.98;;;6.60;;
31270;SDS011;17904;47.420;9.310;2022-10-31T13:16:34;18.10;;;7.22;;
31270;SDS011;17904;47.420;9.310;2022-10-31T13:19:49;15.57;;;6.15;;
31270;SDS011;17904;47.420;9.310;2022-10-31T13:21:57;13.68;;;5.43;;
31270;SDS011;17904;47.420;9.310;2022-10-31T13:27:23;14.18;;;5.15;;
31270;SDS011;17904;47.420;9.310;2022-10-31T13:35:19;15.80;;;6.68;;
31270;SDS011;17904;47.420;9.310;2022-10-31T13:37:49;14.70;;;6.07;;
31270;SDS011;17904;47.420;9.310;2022-10-31T13:40:34;13.38;;;6.05;;
31270;SDS011;17904;47.420;9.310;2022-10-31T13:46:21;13.25;;;5.70;;
31270;SDS011;17904;47.420;9.310;2022-10-31T13:48:50;14.38;;;4.93;;
31270;SDS011;17904;47.420;9.310;2022-10-31T13:51:24;17.48;;;5.93;;
31270;SDS011;17904;47.420;9.310;2022-10-31T13:56:25;13.02;;;5.72;;
31270;SDS011;17904;47.420;9.310;2022-10-31T13:59:00;12.38;;;5.25;;
31270;SDS011;17904;47.420;9.310;2022-10-31T14:01:36;14.38;;;5.47;;
31270;SDS011;17904;47.420;9.310;2022-10-31T14:04:16;7.22;;;4.18;;
31270;SDS011;17904;47.420;9.310;2022-10-31T14:09:35;12.60;;;5.13;;
31270;SDS011;17904;47.420;9.310;2022-10-31T14:12:05;11.73;;;5.88;;
31270;SDS011;17904;47.420;9.310;2022-10-31T14:14:39;12.43;;;6.68;;
31270;SDS011;17904;47.420;9.310;2022-10-31T14:17:16;15.43;;;6.40;;
31270;SDS011;17904;47.420;9.310;2022-10-31T14:22:37;20.05;;;6.97;;
31270;SDS011;17904;47.420;9.310;2022-10-31T14:27:57;8.35;;;4.55;;
31270;SDS011;17904;47.420;9.310;2022-10-31T14:30:26;12.15;;;5.32;;
31270;SDS011;17904;47.420;9.310;2022-10-31T14:32:58;13.98;;;5.43;;
31270;SDS011;17904;47.420;9.310;2022-10-31T14:38:52;16.83;;;5.85;;
31270;SDS011;17904;47.420;9.310;2022-10-31T14:52:26;8.75;;;4.95;;
31270;SDS011;17904;47.420;9.310;2022-10-31T14:54:53;12.32;;;7.00;;
31270;SDS011;17904;47.420;9.310;2022-10-31T14:57:23;14.93;;;6.97;;
31270;SDS011;17904;47.420;9.310;2022-10-31T14:59:58;13.02;;;7.88;;
31270;SDS011;17904;47.420;9.310;2022-10-31T15:02:49;14.52;;;7.07;;
31270;SDS011;17904;47.420;9.310;2022-10-31T15:05:17;13.27;;;8.00;;
31270;SDS011;17904;47.420;9.310;2022-10-31T15:07:55;19.67;;;7.95;;
31270;SDS011;17904;47.420;9.310;2022-10-31T15:15:55;11.00;;;7.05;;
31270;SDS011;17904;47.420;9.310;2022-10-31T15:18:24;29.27;;;10.93;;
31270;SDS011;17904;47.420;9.310;2022-10-31T15:20:52;26.17;;;12.27;;
31270;SDS011;17904;47.420;9.310;2022-10-31T15:26:02;19.60;;;11.90;;
31270;SDS011;17904;47.420;9.310;2022-10-31T15:28:31;31.90;;;13.60;;
31270;SDS011;17904;47.420;9.310;2022-10-31T15:30:59;21.55;;;13.88;;
31270;SDS011;17904;47.420;9.310;2022-10-31T15:33:28;29.02;;;14.32;;
31270;SDS011;17904;47.420;9.310;2022-10-31T15:36:23;20.80;;;12.95;;
31270;SDS011;17904;47.420;9.310;2022-10-31T15:38:56;20.33;;;11.00;;
31270;SDS011;17904;47.420;9.310;2022-10-31T15:44:28;21.40;;;12.32;;
31270;SDS011;17904;47.420;9.310;2022-10-31T15:46:58;18.45;;;10.88;;
31270;SDS011;17904;47.420;9.310;2022-10-31T15:52:04;25.48;;;13.73;;
31270;SDS011;17904;47.420;9.310;2022-10-31T15:54:46;31.73;;;14.88;;
31270;SDS011;17904;47.420;9.310;2022-10-31T15:59:45;35.60;;;15.25;;
31270;SDS011;17904;47.420;9.310;2022-10-31T16:02:14;20.98;;;13.20;;
31270;SDS011;17904;47.420;9.310;2022-10-31T16:09:56;24.17;;;14.40;;
31270;SDS011;17904;47.420;9.310;2022-10-31T16:12:31;22.10;;;14.00;;
31270;SDS011;17904;47.420;9.310;2022-10-31T16:15:01;27.17;;;16.15;;
31270;SDS011;17904;47.420;9.310;2022-10-31T16:17:29;33.53;;;17.20;;
31270;SDS011;17904;47.420;9.310;2022-10-31T16:19:58;25.05;;;16.25;;
31270;SDS011;17904;47.420;9.310;2022-10-31T16:22:28;31.73;;;16.08;;
31270;SDS011;17904;47.420;9.310;2022-10-31T16:27:38;21.02;;;14.95;;
31270;SDS011;17904;47.420;9.310;2022-10-31T16:33:25;23.52;;;14.93;;
31270;SDS011;17904;47.420;9.310;2022-10-31T16:35:57;34.60;;;14.05;;
31270;SDS011;17904;47.420;9.310;2022-10-31T16:38:44;24.58;;;13.07;;
31270;SDS011;17904;47.420;9.310;2022-10-31T16:41:11;20.85;;;12.52;;
31270;SDS011;17904;47.420;9.310;2022-10-31T16:46:04;35.30;;;16.88;;
31270;SDS011;17904;47.420;9.310;2022-10-31T16:48:31;21.88;;;15.40;;
31270;SDS011;17904;47.420;9.310;2022-10-31T16:50:58;35.65;;;17.05;;
31270;SDS011;17904;47.420;9.310;2022-10-31T16:55:54;23.50;;;14.23;;
31270;SDS011;17904;47.420;9.310;2022-10-31T16:58:27;37.28;;;19.95;;
31270;SDS011;17904;47.420;9.310;2022-10-31T17:00:56;34.80;;;19.15;;
31270;SDS011;17904;47.420;9.310;2022-10-31T17:03:23;29.23;;;17.50;;
31270;SDS011;17904;47.420;9.310;2022-10-31T17:05:49;33.28;;;19.65;;
31270;SDS011;17904;47.420;9.310;2022-10-31T17:10:43;28.15;;;16.40;;
31270;SDS011;17904;47.420;9.310;2022-10-31T17:13:16;25.15;;;16.65;;
31270;SDS011;17904;47.420;9.310;2022-10-31T17:15:49;29.90;;;18.52;;
31270;SDS011;17904;47.420;9.310;2022-10-31T17:18:20;41.78;;;19.73;;
31270;SDS011;17904;47.420;9.310;2022-10-31T17:20:56;35.22;;;19.45;;
31270;SDS011;17904;47.420;9.310;2022-10-31T17:23:25;34.13;;;18.85;;
31270;SDS011;17904;47.420;9.310;2022-10-31T17:25:54;39.05;;;18.45;;
31270;SDS011;17904;47.420;9.310;2022-10-31T17:28:22;31.10;;;16.70;;
31270;SDS011;17904;47.420;9.310;2022-10-31T17:30:52;27.35;;;14.13;;
31270;SDS011;17904;47.420;9.310;2022-10-31T17:33:20;27.30;;;16.55;;
31270;SDS011;17904;47.420;9.310;2022-10-31T17:35:47;27.67;;;15.18;;
31270;SDS011;17904;47.420;9.310;2022-10-31T17:40:40;19.42;;;13.20;;
31270;SDS011;17904;47.420;9.310;2022-10-31T17:43:08;32.50;;;13.80;;
31270;SDS011;17904;47.420;9.310;2022-10-31T17:45:37;26.92;;;14.55;;
31270;SDS011;17904;47.420;9.310;2022-10-31T17:48:06;32.00;;;14.48;;
31270;SDS011;17904;47.420;9.310;2022-10-31T17:50:35;31.15;;;14.50;;
31270;SDS011;17904;47.420;9.310;2022-10-31T17:53:02;23.85;;;14.45;;
31270;SDS011;17904;47.420;9.310;2022-10-31T17:55:30;29.42;;;15.82;;
31270;SDS011;17904;47.420;9.310;2022-10-31T17:58:02;26.23;;;14.43;;
31270;SDS011;17904;47.420;9.310;2022-10-31T18:00:32;28.52;;;13.93;;
31270;SDS011;17904;47.420;9.310;2022-10-31T18:03:00;27.70;;;12.48;;
31270;SDS011;17904;47.420;9.310;2022-10-31T18:05:29;20.75;;;10.82;;
31270;SDS011;17904;47.420;9.310;2022-10-31T18:07:55;23.85;;;12.57;;
31270;SDS011;17904;47.420;9.310;2022-10-31T18:10:28;22.63;;;12.13;;
31270;SDS011;17904;47.420;9.310;2022-10-31T18:12:55;27.65;;;12.52;;
31270;SDS011;17904;47.420;9.310;2022-10-31T18:15:22;34.88;;;11.98;;
31270;SDS011;17904;47.420;9.310;2022-10-31T18:17:48;26.13;;;11.93;;
31270;SDS011;17904;47.420;9.310;2022-10-31T18:20:15;26.38;;;12.02;;
31270;SDS011;17904;47.420;9.310;2022-10-31T18:25:08;28.25;;;11.20;;
31270;SDS011;17904;47.420;9.310;2022-10-31T18:27:35;28.65;;;12.25;;
31270;SDS011;17904;47.420;9.310;2022-10-31T18:30:02;27.00;;;10.27;;
31270;SDS011;17904;47.420;9.310;2022-10-31T18:32:29;23.25;;;10.23;;
31270;SDS011;17904;47.420;9.310;2022-10-31T18:34:56;17.52;;;10.18;;
31270;SDS011;17904;47.420;9.310;2022-10-31T18:37:22;27.00;;;11.02;;
31270;SDS011;17904;47.420;9.310;2022-10-31T18:39:49;29.92;;;11.27;;
31270;SDS011;17904;47.420;9.310;2022-10-31T18:44:42;30.30;;;12.85;;
31270;SDS011;17904;47.420;9.310;2022-10-31T18:47:09;25.15;;;12.45;;
31270;SDS011;17904;47.420;9.310;2022-10-31T18:52:02;32.60;;;13.43;;
31270;SDS011;17904;47.420;9.310;2022-10-31T18:54:30;23.55;;;12.05;;
31270;SDS011;17904;47.420;9.310;2022-10-31T18:56:56;28.88;;;12.98;;
31270;SDS011;17904;47.420;9.310;2022-10-31T18:59:23;29.30;;;12.35;;